Time;durP1;ratioP1;P1;durP2;ratioP2;P2;SDS_P1;SDS_P2;PMS_P1;PMS_P2;Temp;Humidity;BMP_temperature;BMP_pressure;BME280_temperature;BME280_humidity;BME280_pressure;Samples;Min_cycle;Max_cycle;Signal;HPM_P1;HPM_P2
2023/01/29 00:00:31;;;;;;;142.00;58.70;;;;;;;;;;5038472;28;20346;-77
2023/01/29 00:02:57;;;;;;;148.30;59.40;;;;;;;;;;5047240;28;20060;-77
2023/01/29 00:05:23;;;;;;;133.33;55.63;;;;;;;;;;5036449;28;20037;-76
2023/01/29 00:07:52;;;;;;;138.70;55.17;;;;;;;;;;5055494;28;20271;-76
2023/01/29 00:10:19;;;;;;;144.37;57.07;;;;;;;;;;5036734;28;20323;-77
2023/01/29 00:12:45;;;;;;;149.73;58.57;;;;;;;;;;5035422;28;20785;-76
2023/01/29 00:15:11;;;;;;;135.53;56.57;;;;;;;;;;5048691;28;20026;-76
2023/01/29 00:17:37;;;;;;;132.52;56.00;;;;;;;;;;5039627;28;20438;-76
2023/01/29 00:20:06;;;;;;;137.20;59.13;;;;;;;;;;5042206;28;20036;-76
2023/01/29 00:22:32;;;;;;;140.10;55.53;;;;;;;;;;5043589;28;20331;-77
2023/01/29 00:24:58;;;;;;;137.80;57.87;;;;;;;;;;5048644;28;20260;-75
2023/01/29 00:27:24;;;;;;;138.80;58.33;;;;;;;;;;5038850;28;20108;-76
2023/01/29 00:30:07;;;;;;;147.52;58.30;;;;;;;;;;5042739;28;20341;-77
2023/01/29 00:32:33;;;;;;;151.25;57.80;;;;;;;;;;5042109;28;20075;-76
2023/01/29 00:34:59;;;;;;;144.60;59.90;;;;;;;;;;5027142;28;20021;-76
2023/01/29 00:37:28;;;;;;;151.37;60.90;;;;;;;;;;5046154;28;20430;-76
2023/01/29 00:39:54;;;;;;;157.68;62.40;;;;;;;;;;5025975;28;20354;-76
2023/01/29 00:45:04;;;;;;;158.45;62.53;;;;;;;;;;5024700;28;20341;-76
2023/01/29 00:47:32;;;;;;;148.20;58.10;;;;;;;;;;5038636;28;20068;-77
2023/01/29 00:49:59;;;;;;;145.43;57.03;;;;;;;;;;5041117;28;20276;-76
2023/01/29 00:52:31;;;;;;;154.50;60.80;;;;;;;;;;5042647;28;20163;-75
2023/01/29 00:54:58;;;;;;;150.00;58.70;;;;;;;;;;5041321;28;20268;-77
2023/01/29 00:57:25;;;;;;;142.45;58.60;;;;;;;;;;5040390;28;20029;-77
2023/01/29 00:59:51;;;;;;;132.30;56.30;;;;;;;;;;5044959;28;20025;-77
2023/01/29 01:05:04;;;;;;;138.07;56.22;;;;;;;;;;5029654;28;20483;-75
2023/01/29 01:07:31;;;;;;;142.17;57.90;;;;;;;;;;5046534;28;20090;-77
2023/01/29 01:12:42;;;;;;;138.07;55.33;;;;;;;;;;5028870;28;20298;-76
2023/01/29 01:15:11;;;;;;;145.63;58.43;;;;;;;;;;5031141;28;20017;-77
2023/01/29 01:17:37;;;;;;;147.57;57.37;;;;;;;;;;5046487;28;20026;-77
2023/01/29 01:20:03;;;;;;;135.67;57.43;;;;;;;;;;5044917;28;20304;-75
2023/01/29 01:22:30;;;;;;;141.20;56.75;;;;;;;;;;5046675;28;20284;-76
2023/01/29 01:24:56;;;;;;;140.82;55.72;;;;;;;;;;5030317;28;20040;-76
2023/01/29 01:27:24;;;;;;;142.07;55.60;;;;;;;;;;5044878;28;20022;-76
2023/01/29 01:29:50;;;;;;;143.90;54.90;;;;;;;;;;5044278;28;20315;-77
2023/01/29 01:32:17;;;;;;;147.73;55.03;;;;;;;;;;5028735;28;20294;-76
2023/01/29 01:34:44;;;;;;;149.45;56.78;;;;;;;;;;5029380;28;20032;-76
2023/01/29 01:37:10;;;;;;;145.95;56.20;;;;;;;;;;5046576;28;20034;-75
2023/01/29 01:39:36;;;;;;;141.10;55.92;;;;;;;;;;5030174;28;20030;-76
2023/01/29 01:42:02;;;;;;;141.60;54.43;;;;;;;;;;5027027;28;20752;-76
2023/01/29 01:44:47;;;;;;;139.07;54.87;;;;;;;;;;5044099;28;20292;-76
2023/01/29 01:47:14;;;;;;;140.15;52.63;;;;;;;;;;5025178;28;20288;-77
2023/01/29 01:49:43;;;;;;;135.35;54.95;;;;;;;;;;5044331;28;20131;-75
2023/01/29 01:52:09;;;;;;;130.43;54.05;;;;;;;;;;5041942;28;20038;-75
2023/01/29 01:54:35;;;;;;;135.93;54.03;;;;;;;;;;5026696;28;20120;-76
2023/01/29 01:57:14;;;;;;;141.00;56.95;;;;;;;;;;5042469;28;20029;-76
2023/01/29 01:59:42;;;;;;;143.40;51.65;;;;;;;;;;5043506;28;20029;-76
2023/01/29 02:10:31;;;;;;;147.20;53.40;;;;;;;;;;5026965;28;20075;-76
2023/01/29 02:12:57;;;;;;;136.32;51.55;;;;;;;;;;5028166;28;20026;-76
2023/01/29 02:15:23;;;;;;;145.65;53.92;;;;;;;;;;5041701;28;20033;-77
2023/01/29 02:17:50;;;;;;;148.73;55.03;;;;;;;;;;5043232;28;20103;-76
2023/01/29 02:20:26;;;;;;;138.20;54.65;;;;;;;;;;5029071;28;20283;-76
2023/01/29 02:23:05;;;;;;;140.48;52.63;;;;;;;;;;5027748;28;20030;-76
2023/01/29 02:25:49;;;;;;;143.20;54.15;;;;;;;;;;5042526;28;20033;-76
2023/01/29 02:28:34;;;;;;;140.15;54.92;;;;;;;;;;5044593;28;20912;-76
2023/01/29 02:31:09;;;;;;;132.55;49.42;;;;;;;;;;5027407;28;20026;-75
2023/01/29 02:33:54;;;;;;;143.02;51.55;;;;;;;;;;5042048;28;20026;-76
2023/01/29 02:36:58;;;;;;;147.15;53.58;;;;;;;;;;5043502;28;20037;-76
2023/01/29 02:39:37;;;;;;;129.80;51.35;;;;;;;;;;5009064;28;20049;-75
2023/01/29 02:42:14;;;;;;;134.65;52.13;;;;;;;;;;5023423;28;20030;-76
2023/01/29 02:44:43;;;;;;;131.60;52.28;;;;;;;;;;5017875;28;20037;-76
2023/01/29 02:47:26;;;;;;;131.40;51.83;;;;;;;;;;5018112;28;20057;-76
2023/01/29 02:49:56;;;;;;;122.63;50.67;;;;;;;;;;5036810;28;20109;-76
2023/01/29 02:52:26;;;;;;;132.60;52.05;;;;;;;;;;5034270;28;20461;-76
2023/01/29 02:55:01;;;;;;;132.02;52.90;;;;;;;;;;5018277;28;20033;-76
2023/01/29 02:57:32;;;;;;;130.45;51.28;;;;;;;;;;5017816;28;20397;-75
2023/01/29 03:00:00;;;;;;;143.65;53.15;;;;;;;;;;5018158;28;20033;-76
2023/01/29 03:02:32;;;;;;;127.47;50.75;;;;;;;;;;5018136;28;20038;-76
2023/01/29 03:04:58;;;;;;;;;;;;;;;;;;5018617;28;20033;-75
2023/01/29 03:07:43;;;;;;;137.67;47.50;;;;;;;;;;5017132;28;19919;-76
2023/01/29 03:10:15;;;;;;;133.20;51.55;;;;;;;;;;5039119;28;20431;-76
2023/01/29 03:12:42;;;;;;;135.93;52.45;;;;;;;;;;5044321;28;20021;-76
2023/01/29 03:15:15;;;;;;;134.23;50.10;;;;;;;;;;5035397;28;20037;-76
2023/01/29 03:17:47;;;;;;;136.35;50.45;;;;;;;;;;5035006;28;20482;-76
2023/01/29 03:20:16;;;;;;;137.55;51.85;;;;;;;;;;5035411;28;20083;-76
2023/01/29 03:22:45;;;;;;;127.35;49.65;;;;;;;;;;5034032;28;20030;-76
2023/01/29 03:33:31;;;;;;;130.82;51.10;;;;;;;;;;5037020;28;20121;-75
2023/01/29 03:36:09;;;;;;;118.00;47.08;;;;;;;;;;5035267;28;20039;-76
2023/01/29 03:38:35;;;;;;;130.63;49.00;;;;;;;;;;5036631;28;20033;-76
2023/01/29 03:41:04;;;;;;;136.75;49.70;;;;;;;;;;5037655;28;20021;-76
2023/01/29 03:43:37;;;;;;;126.22;47.17;;;;;;;;;;5037134;28;20619;-76
2023/01/29 03:46:22;;;;;;;129.90;50.40;;;;;;;;;;5035569;28;20058;-76
2023/01/29 03:49:07;;;;;;;136.55;52.38;;;;;;;;;;5058460;28;20082;-76
2023/01/29 03:51:33;;;;;;;152.38;52.38;;;;;;;;;;5044975;28;20033;-76
2023/01/29 03:54:04;;;;;;;145.77;51.80;;;;;;;;;;5043121;28;20030;-77
2023/01/29 03:56:30;;;;;;;134.35;49.53;;;;;;;;;;5045535;28;20048;-76
2023/01/29 03:59:02;;;;;;;140.30;50.90;;;;;;;;;;5036647;28;20033;-76
2023/01/29 04:01:31;;;;;;;136.65;49.97;;;;;;;;;;5034329;28;20029;-76
2023/01/29 04:04:17;;;;;;;136.68;48.50;;;;;;;;;;5034208;28;20029;-76
2023/01/29 04:06:45;;;;;;;117.22;46.65;;;;;;;;;;5034298;28;20041;-76
2023/01/29 04:09:19;;;;;;;136.30;50.70;;;;;;;;;;5034175;28;20060;-76
2023/01/29 04:11:49;;;;;;;144.85;50.88;;;;;;;;;;5033933;28;20026;-76
2023/01/29 04:14:16;;;;;;;130.70;47.78;;;;;;;;;;5066489;28;20036;-76
2023/01/29 04:16:46;;;;;;;127.68;49.17;;;;;;;;;;5051882;28;20032;-76
2023/01/29 04:19:12;;;;;;;126.28;48.47;;;;;;;;;;5033915;28;20099;-76
2023/01/29 04:21:38;;;;;;;130.70;50.53;;;;;;;;;;5033830;28;20040;-77
2023/01/29 04:24:06;;;;;;;129.57;48.30;;;;;;;;;;5033994;28;20037;-76
2023/01/29 04:26:43;;;;;;;131.80;47.33;;;;;;;;;;5034388;28;20064;-76
2023/01/29 04:29:09;;;;;;;124.50;47.50;;;;;;;;;;5033782;28;20029;-76
2023/01/29 04:31:40;;;;;;;130.57;46.87;;;;;;;;;;5034078;28;20036;-76
2023/01/29 04:34:12;;;;;;;122.80;47.63;;;;;;;;;;5040492;28;20430;-77
2023/01/29 04:36:43;;;;;;;127.10;47.17;;;;;;;;;;5034089;28;20134;-77
2023/01/29 04:39:29;;;;;;;128.95;48.92;;;;;;;;;;5042789;28;20029;-76
2023/01/29 04:42:04;;;;;;;129.90;47.28;;;;;;;;;;5040378;28;20025;-76
2023/01/29 04:44:43;;;;;;;130.25;48.38;;;;;;;;;;5044482;28;20037;-76
2023/01/29 04:47:11;;;;;;;134.35;47.63;;;;;;;;;;5037657;28;20421;-76
2023/01/29 04:50:00;;;;;;;124.78;46.28;;;;;;;;;;5038079;28;20017;-76
2023/01/29 04:52:26;;;;;;;125.72;45.67;;;;;;;;;;5037891;28;20036;-76
2023/01/29 04:54:56;;;;;;;124.77;47.93;;;;;;;;;;5037669;28;20029;-77
2023/01/29 04:57:24;;;;;;;137.18;47.22;;;;;;;;;;5038863;28;20033;-76
2023/01/29 04:59:59;;;;;;;127.57;47.65;;;;;;;;;;5037600;28;20021;-76
2023/01/29 05:02:27;;;;;;;120.05;46.03;;;;;;;;;;5054458;28;20041;-76
2023/01/29 05:04:54;;;;;;;127.75;47.88;;;;;;;;;;5052688;28;20100;-77
2023/01/29 05:07:20;;;;;;;132.95;47.63;;;;;;;;;;5039915;28;20091;-76
2023/01/29 05:09:49;;;;;;;132.93;48.75;;;;;;;;;;5038099;28;20021;-76
2023/01/29 05:12:17;;;;;;;125.50;45.78;;;;;;;;;;5037266;28;20083;-76
2023/01/29 05:14:44;;;;;;;128.00;48.00;;;;;;;;;;5047272;28;20029;-76
2023/01/29 05:17:14;;;;;;;137.88;46.88;;;;;;;;;;5048720;28;20331;-76
2023/01/29 05:19:40;;;;;;;137.85;49.38;;;;;;;;;;5055491;28;20025;-76
2023/01/29 05:22:08;;;;;;;142.40;49.22;;;;;;;;;;5050857;28;20021;-76
2023/01/29 05:24:35;;;;;;;130.45;45.88;;;;;;;;;;5040291;28;20033;-77
2023/01/29 05:29:46;;;;;;;124.18;46.03;;;;;;;;;;5040521;28;20041;-76
2023/01/29 05:32:12;;;;;;;132.85;47.28;;;;;;;;;;5037391;28;20124;-76
2023/01/29 05:34:38;;;;;;;122.65;47.08;;;;;;;;;;5037106;28;20040;-76
2023/01/29 05:37:05;;;;;;;124.13;47.50;;;;;;;;;;5037755;28;20374;-76
2023/01/29 05:39:30;;;;;;;117.13;46.65;;;;;;;;;;5044118;28;20282;-76
2023/01/29 05:41:56;;;;;;;128.33;45.87;;;;;;;;;;5057043;28;20104;-76
2023/01/29 05:44:25;;;;;;;125.50;46.87;;;;;;;;;;5036498;28;20401;-76
2023/01/29 05:46:51;;;;;;;126.88;45.92;;;;;;;;;;5036159;28;20355;-76
2023/01/29 05:49:19;;;;;;;125.15;44.38;;;;;;;;;;5039733;28;20021;-75
2023/01/29 05:51:45;;;;;;;129.32;47.33;;;;;;;;;;5052063;28;20038;-76
2023/01/29 05:54:11;;;;;;;122.07;45.80;;;;;;;;;;5045256;28;20074;-76
2023/01/29 05:56:38;;;;;;;135.75;47.83;;;;;;;;;;5044564;28;20270;-76
2023/01/29 05:59:04;;;;;;;130.52;47.50;;;;;;;;;;5036592;28;20036;-76
2023/01/29 06:01:30;;;;;;;131.57;48.03;;;;;;;;;;5053198;28;20037;-76
2023/01/29 06:03:56;;;;;;;137.03;48.73;;;;;;;;;;5039965;28;20112;-76
2023/01/29 06:06:22;;;;;;;122.67;48.07;;;;;;;;;;5036300;28;20288;-76
2023/01/29 06:08:53;;;;;;;134.20;48.17;;;;;;;;;;5040896;28;20584;-76
2023/01/29 06:11:19;;;;;;;125.97;49.20;;;;;;;;;;5045386;28;20268;-76
2023/01/29 06:13:45;;;;;;;123.57;45.30;;;;;;;;;;5059135;28;20484;-76
2023/01/29 06:16:12;;;;;;;131.00;48.70;;;;;;;;;;5050566;28;20252;-76
2023/01/29 06:18:41;;;;;;;126.30;47.42;;;;;;;;;;5046097;28;20037;-76
2023/01/29 06:21:09;;;;;;;119.97;46.67;;;;;;;;;;5042585;28;20061;-76
2023/01/29 06:23:35;;;;;;;129.50;46.05;;;;;;;;;;5041502;28;20045;-76
2023/01/29 06:26:06;;;;;;;127.17;46.30;;;;;;;;;;5027035;28;20026;-76
2023/01/29 06:28:32;;;;;;;128.73;48.20;;;;;;;;;;5031853;28;20298;-76
2023/01/29 06:30:59;;;;;;;118.40;44.77;;;;;;;;;;5035862;28;20033;-76
2023/01/29 06:33:25;;;;;;;114.88;45.83;;;;;;;;;;5052674;28;20351;-76
2023/01/29 06:36:01;;;;;;;122.28;45.83;;;;;;;;;;5052702;28;20120;-76
2023/01/29 06:38:27;;;;;;;123.70;46.70;;;;;;;;;;5036100;28;20030;-76
2023/01/29 06:40:54;;;;;;;111.60;45.58;;;;;;;;;;5037672;28;20108;-76
2023/01/29 06:43:20;;;;;;;120.05;44.90;;;;;;;;;;5029076;28;20021;-76
2023/01/29 06:45:56;;;;;;;117.47;44.67;;;;;;;;;;5043995;28;20030;-75
2023/01/29 06:48:22;;;;;;;116.13;44.33;;;;;;;;;;5043923;28;20745;-76
2023/01/29 06:50:48;;;;;;;121.53;45.70;;;;;;;;;;5042342;28;20268;-76
2023/01/29 06:53:15;;;;;;;126.00;48.03;;;;;;;;;;5041474;28;20280;-76
2023/01/29 06:55:41;;;;;;;123.13;45.83;;;;;;;;;;5041795;28;20408;-75
2023/01/29 06:58:10;;;;;;;124.03;46.70;;;;;;;;;;5042886;28;20025;-75
2023/01/29 07:00:36;;;;;;;122.78;46.65;;;;;;;;;;5041082;28;20387;-76
2023/01/29 07:03:02;;;;;;;116.03;43.53;;;;;;;;;;5043422;28;20130;-76
2023/01/29 07:05:29;;;;;;;118.97;45.45;;;;;;;;;;5039330;28;20776;-75
2023/01/29 07:07:55;;;;;;;111.18;44.90;;;;;;;;;;5038353;28;20037;-76
2023/01/29 07:10:21;;;;;;;125.55;47.38;;;;;;;;;;5041989;28;20037;-75
2023/01/29 07:12:47;;;;;;;129.90;48.37;;;;;;;;;;5025986;28;20465;-76
2023/01/29 07:15:13;;;;;;;126.90;46.87;;;;;;;;;;5025251;28;20410;-76
2023/01/29 07:17:39;;;;;;;133.25;46.17;;;;;;;;;;5040396;28;20272;-75
2023/01/29 07:20:06;;;;;;;138.23;48.73;;;;;;;;;;5040209;28;20040;-76
2023/01/29 07:22:35;;;;;;;151.77;51.00;;;;;;;;;;5026505;28;20774;-75
2023/01/29 07:25:01;;;;;;;145.88;49.85;;;;;;;;;;5042191;28;20347;-76
2023/01/29 07:27:27;;;;;;;144.10;50.67;;;;;;;;;;5041221;28;20117;-75
2023/01/29 07:29:53;;;;;;;140.87;49.70;;;;;;;;;;5040039;28;20280;-76
2023/01/29 07:32:19;;;;;;;138.30;49.60;;;;;;;;;;5040272;28;20033;-76
2023/01/29 07:34:45;;;;;;;144.93;54.20;;;;;;;;;;5025434;28;20284;-76
2023/01/29 07:37:11;;;;;;;128.50;49.67;;;;;;;;;;5024532;28;20033;-76
2023/01/29 07:39:37;;;;;;;133.90;49.70;;;;;;;;;;5042244;28;20287;-76
2023/01/29 07:42:03;;;;;;;124.60;48.90;;;;;;;;;;5040931;28;20288;-76
2023/01/29 07:44:29;;;;;;;135.47;49.40;;;;;;;;;;5026021;28;20104;-76
2023/01/29 07:46:55;;;;;;;122.73;48.93;;;;;;;;;;5041019;28;20302;-76
2023/01/29 07:49:21;;;;;;;119.67;49.40;;;;;;;;;;5025382;28;20028;-76
2023/01/29 07:51:49;;;;;;;123.80;48.57;;;;;;;;;;5041471;28;20630;-76
2023/01/29 07:54:15;;;;;;;113.93;46.87;;;;;;;;;;5040169;28;20091;-76
2023/01/29 07:56:41;;;;;;;108.20;47.43;;;;;;;;;;5041631;28;20305;-75
2023/01/29 07:59:07;;;;;;;112.47;44.47;;;;;;;;;;5025724;28;20753;-76
2023/01/29 08:01:33;;;;;;;105.30;46.00;;;;;;;;;;5025819;28;20296;-75
2023/01/29 08:04:01;;;;;;;100.73;45.00;;;;;;;;;;5025896;28;20834;-76
2023/01/29 08:06:30;;;;;;;100.97;41.97;;;;;;;;;;5042374;28;20963;-75
2023/01/29 08:08:56;;;;;;;103.20;44.87;;;;;;;;;;5025796;28;20280;-75
2023/01/29 08:11:22;;;;;;;98.43;44.73;;;;;;;;;;5041207;28;20394;-76
2023/01/29 08:13:48;;;;;;;101.13;43.87;;;;;;;;;;5044408;28;20306;-76
2023/01/29 08:16:16;;;;;;;99.90;45.23;;;;;;;;;;5038953;28;20281;-76
2023/01/29 08:18:46;;;;;;;91.93;42.30;;;;;;;;;;5029013;28;20052;-76
2023/01/29 08:21:12;;;;;;;91.03;41.17;;;;;;;;;;5025626;28;20358;-76
2023/01/29 08:23:40;;;;;;;98.57;44.63;;;;;;;;;;5028465;28;20268;-75
2023/01/29 08:26:06;;;;;;;92.30;43.23;;;;;;;;;;5039585;28;20447;-76
2023/01/29 08:28:34;;;;;;;94.33;43.33;;;;;;;;;;5041840;28;20343;-76
2023/01/29 08:31:00;;;;;;;85.50;40.40;;;;;;;;;;5041207;28;20306;-74
2023/01/29 08:33:28;;;;;;;87.17;41.03;;;;;;;;;;5024588;28;20768;-76
2023/01/29 08:35:54;;;;;;;88.33;41.33;;;;;;;;;;5040368;28;20320;-76
2023/01/29 08:38:22;;;;;;;87.87;42.20;;;;;;;;;;5040560;28;20292;-76
2023/01/29 08:40:48;;;;;;;86.43;41.70;;;;;;;;;;5022896;28;21135;-75
2023/01/29 08:43:14;;;;;;;82.50;41.07;;;;;;;;;;5045966;28;20334;-76
2023/01/29 08:45:43;;;;;;;84.93;40.93;;;;;;;;;;5033485;28;20288;-76
2023/01/29 08:48:09;;;;;;;82.60;40.63;;;;;;;;;;5050159;28;20272;-76
2023/01/29 08:50:38;;;;;;;82.97;40.47;;;;;;;;;;5034208;28;20264;-76
2023/01/29 08:53:06;;;;;;;81.33;40.97;;;;;;;;;;5033439;28;20314;-76
2023/01/29 08:55:35;;;;;;;89.77;42.40;;;;;;;;;;5045032;28;20311;-76
2023/01/29 08:58:04;;;;;;;84.33;41.73;;;;;;;;;;5055199;28;20271;-76
2023/01/29 09:00:30;;;;;;;84.03;40.43;;;;;;;;;;5046997;28;20339;-76
2023/01/29 09:02:59;;;;;;;92.63;43.10;;;;;;;;;;5050026;28;20260;-76
2023/01/29 09:05:28;;;;;;;83.23;40.70;;;;;;;;;;5033478;28;20275;-76
2023/01/29 09:07:56;;;;;;;82.67;39.87;;;;;;;;;;5033251;28;20264;-75
2023/01/29 09:10:22;;;;;;;80.27;38.50;;;;;;;;;;5033860;28;20264;-76
2023/01/29 09:12:48;;;;;;;84.70;43.53;;;;;;;;;;5037149;28;20348;-76
2023/01/29 09:15:14;;;;;;;80.87;39.93;;;;;;;;;;5053603;28;20716;-76
2023/01/29 09:17:40;;;;;;;81.53;39.83;;;;;;;;;;5051279;28;20022;-77
2023/01/29 09:20:06;;;;;;;78.23;39.77;;;;;;;;;;5049938;28;20688;-76
2023/01/29 09:22:32;;;;;;;83.00;40.63;;;;;;;;;;5036923;28;20026;-76
2023/01/29 09:24:58;;;;;;;75.27;39.33;;;;;;;;;;5044998;28;20607;-76
2023/01/29 09:27:24;;;;;;;78.60;39.40;;;;;;;;;;5050378;28;20033;-76
2023/01/29 09:29:50;;;;;;;77.23;40.53;;;;;;;;;;5038592;28;20377;-77
2023/01/29 09:32:19;;;;;;;76.73;38.97;;;;;;;;;;5037113;28;20053;-77
2023/01/29 09:34:45;;;;;;;66.37;36.20;;;;;;;;;;5036706;28;20033;-76
2023/01/29 09:37:11;;;;;;;76.03;38.57;;;;;;;;;;5040367;28;20275;-76
2023/01/29 09:39:39;;;;;;;72.93;38.10;;;;;;;;;;5046143;28;20517;-77
2023/01/29 09:42:08;;;;;;;74.57;36.50;;;;;;;;;;5038038;28;20037;-77
2023/01/29 09:44:58;;;;;;;72.23;39.50;;;;;;;;;;5027097;28;20748;-76
2023/01/29 09:47:26;;;;;;;73.30;36.37;;;;;;;;;;5018462;28;20342;-76
2023/01/29 09:49:54;;;;;;;69.90;37.63;;;;;;;;;;5037882;28;20264;-77
2023/01/29 09:52:23;;;;;;;68.43;37.47;;;;;;;;;;5045304;28;20263;-76
2023/01/29 09:54:57;;;;;;;72.40;37.80;;;;;;;;;;5037556;28;20307;-77
2023/01/29 09:57:25;;;;;;;66.77;35.40;;;;;;;;;;5030552;28;20269;-76
2023/01/29 10:00:19;;;;;;;73.93;39.00;;;;;;;;;;5045983;28;20355;-76
2023/01/29 10:02:49;;;;;;;67.60;36.80;;;;;;;;;;5051501;28;20295;-77
2023/01/29 10:05:38;;;;;;;69.63;36.20;;;;;;;;;;5053619;28;20343;-76
2023/01/29 10:08:04;;;;;;;72.87;37.17;;;;;;;;;;5040013;28;20348;-77
2023/01/29 10:10:46;;;;;;;73.53;38.97;;;;;;;;;;5056293;28;20367;-77
2023/01/29 10:13:27;;;;;;;66.80;34.97;;;;;;;;;;5041312;28;20030;-77
2023/01/29 10:15:59;;;;;;;67.03;37.87;;;;;;;;;;5036661;28;20272;-77
2023/01/29 10:18:44;;;;;;;68.93;36.80;;;;;;;;;;5060820;28;20352;-77
2023/01/29 10:21:28;;;;;;;69.17;36.90;;;;;;;;;;5050872;28;20063;-77
2023/01/29 10:24:16;;;;;;;68.50;35.67;;;;;;;;;;5044408;28;20286;-77
2023/01/29 10:26:42;;;;;;;67.40;35.80;;;;;;;;;;5035905;28;20784;-75
2023/01/29 10:29:15;;;;;;;70.07;36.30;;;;;;;;;;5037746;28;20267;-77
2023/01/29 10:31:41;;;;;;;63.57;35.17;;;;;;;;;;5038415;28;20295;-76
2023/01/29 10:34:13;;;;;;;70.40;36.53;;;;;;;;;;5052518;28;20744;-77
2023/01/29 10:36:44;;;;;;;64.95;35.25;;;;;;;;;;5035827;28;20585;-77
2023/01/29 10:39:21;;;;;;;65.40;35.43;;;;;;;;;;5037705;28;20349;-77
2023/01/29 10:42:06;;;;;;;66.80;36.17;;;;;;;;;;5055690;28;20264;-77
2023/01/29 10:44:31;;;;;;;61.53;34.40;;;;;;;;;;5055197;28;20272;-77
2023/01/29 10:47:19;;;;;;;66.37;35.87;;;;;;;;;;5035800;28;20292;-77
2023/01/29 10:50:06;;;;;;;64.43;34.50;;;;;;;;;;5035621;28;20033;-77
2023/01/29 10:52:35;;;;;;;64.30;34.13;;;;;;;;;;5044898;28;20049;-78
2023/01/29 10:55:20;;;;;;;68.43;35.93;;;;;;;;;;5035335;28;20268;-77
2023/01/29 10:58:14;;;;;;;62.73;35.03;;;;;;;;;;5045828;28;20119;-77
2023/01/29 11:00:40;;;;;;;57.47;34.17;;;;;;;;;;5031179;28;20026;-77
2023/01/29 11:03:22;;;;;;;63.10;35.70;;;;;;;;;;5063818;28;20040;-77
2023/01/29 11:05:51;;;;;;;64.82;36.15;;;;;;;;;;5036722;28;20310;-77
2023/01/29 11:08:19;;;;;;;61.53;34.63;;;;;;;;;;5044364;28;20111;-78
2023/01/29 11:10:48;;;;;;;63.23;35.37;;;;;;;;;;5055256;28;20057;-78
2023/01/29 11:13:15;;;;;;;63.30;34.80;;;;;;;;;;5048047;28;20470;-77
2023/01/29 11:15:41;;;;;;;62.83;35.20;;;;;;;;;;5037379;28;20079;-77
2023/01/29 11:18:14;;;;;;;64.47;36.93;;;;;;;;;;5056045;28;20661;-78
2023/01/29 11:20:43;;;;;;;59.50;34.90;;;;;;;;;;5035725;28;20026;-77
2023/01/29 11:23:27;;;;;;;61.40;35.57;;;;;;;;;;5048334;28;20515;-78
2023/01/29 11:25:56;;;;;;;57.17;33.37;;;;;;;;;;5035672;28;20026;-78
2023/01/29 11:28:55;;;;;;;59.80;34.40;;;;;;;;;;5034680;28;20087;-78
2023/01/29 11:31:29;;;;;;;60.43;34.33;;;;;;;;;;5027840;28;20045;-77
2023/01/29 11:34:21;;;;;;;60.37;34.90;;;;;;;;;;5034647;28;20030;-77
2023/01/29 11:36:56;;;;;;;59.55;33.40;;;;;;;;;;5033680;28;20124;-77
2023/01/29 11:39:23;;;;;;;60.90;33.83;;;;;;;;;;5057665;28;20040;-77
2023/01/29 11:41:59;;;;;;;61.73;34.33;;;;;;;;;;5038064;28;20029;-78
2023/01/29 11:44:43;;;;;;;63.00;33.60;;;;;;;;;;5033771;28;20457;-77
2023/01/29 11:47:12;;;;;;;65.43;35.73;;;;;;;;;;5034601;28;20037;-77
2023/01/29 11:49:39;;;;;;;62.93;36.47;;;;;;;;;;5034670;28;20450;-76
2023/01/29 11:52:09;;;;;;;63.90;35.03;;;;;;;;;;5043425;28;20393;-77
2023/01/29 11:54:43;;;;;;;58.47;32.27;;;;;;;;;;5051341;28;20025;-77
2023/01/29 11:57:39;;;;;;;66.53;35.37;;;;;;;;;;5034506;28;20021;-77
2023/01/29 12:00:07;;;;;;;61.33;34.93;;;;;;;;;;5025404;28;20045;-76
2023/01/29 12:02:35;;;;;;;65.43;35.73;;;;;;;;;;5045726;28;20501;-76
2023/01/29 12:05:06;;;;;;;63.90;35.23;;;;;;;;;;5039517;28;20033;-76
2023/01/29 12:07:32;;;;;;;60.67;34.30;;;;;;;;;;5034353;28;20053;-76
2023/01/29 12:10:02;;;;;;;64.10;35.87;;;;;;;;;;5039638;28;20361;-76
2023/01/29 12:12:32;;;;;;;61.23;33.80;;;;;;;;;;5045467;28;20053;-76
2023/01/29 12:15:03;;;;;;;68.07;37.07;;;;;;;;;;5034096;28;20268;-76
2023/01/29 12:17:31;;;;;;;64.20;34.93;;;;;;;;;;5051139;28;20272;-76
2023/01/29 12:20:04;;;;;;;61.93;34.30;;;;;;;;;;5041954;28;20029;-76
2023/01/29 12:22:33;;;;;;;61.70;35.58;;;;;;;;;;5034342;28;20033;-76
2023/01/29 12:25:04;;;;;;;66.43;36.73;;;;;;;;;;5034123;28;20037;-76
2023/01/29 12:27:35;;;;;;;64.87;35.20;;;;;;;;;;5034317;28;20040;-77
2023/01/29 12:30:15;;;;;;;59.77;35.20;;;;;;;;;;5050802;28;20026;-77
2023/01/29 12:32:59;;;;;;;59.87;33.63;;;;;;;;;;5038871;28;20025;-76
2023/01/29 12:35:30;;;;;;;64.50;35.67;;;;;;;;;;5060254;28;20043;-76
2023/01/29 12:37:59;;;;;;;63.53;33.93;;;;;;;;;;5045764;28;20040;-76
2023/01/29 12:40:29;;;;;;;61.23;33.73;;;;;;;;;;5047298;28;20326;-77
2023/01/29 12:42:57;;;;;;;64.27;35.60;;;;;;;;;;5039132;28;20029;-76
2023/01/29 12:45:25;;;;;;;69.30;35.90;;;;;;;;;;5038063;28;20068;-76
2023/01/29 12:47:56;;;;;;;66.73;35.13;;;;;;;;;;5046429;28;20043;-76
2023/01/29 12:50:26;;;;;;;58.27;33.20;;;;;;;;;;5054362;28;20041;-77
2023/01/29 12:53:12;;;;;;;62.03;34.20;;;;;;;;;;5056160;28;20032;-77
2023/01/29 12:55:43;;;;;;;63.07;35.27;;;;;;;;;;5039821;28;20047;-76
2023/01/29 12:58:14;;;;;;;59.53;33.73;;;;;;;;;;5050328;28;20442;-76
2023/01/29 13:00:46;;;;;;;62.07;35.53;;;;;;;;;;5044143;28;20082;-76
2023/01/29 13:03:29;;;;;;;61.72;33.47;;;;;;;;;;5049414;28;20025;-77
2023/01/29 13:05:55;;;;;;;61.35;33.47;;;;;;;;;;5032093;28;20100;-77
2023/01/29 13:08:27;;;;;;;58.10;32.97;;;;;;;;;;5046174;28;20033;-76
2023/01/29 13:10:54;;;;;;;59.35;33.58;;;;;;;;;;5057444;28;20434;-77
2023/01/29 13:13:35;;;;;;;57.17;30.90;;;;;;;;;;5041353;28;20022;-76
2023/01/29 13:16:03;;;;;;;56.33;31.70;;;;;;;;;;5037342;28;20040;-75
2023/01/29 13:18:35;;;;;;;52.93;29.67;;;;;;;;;;5037291;28;20104;-76
2023/01/29 13:21:01;;;;;;;50.63;30.17;;;;;;;;;;5046489;28;20025;-76
2023/01/29 13:23:39;;;;;;;51.97;30.33;;;;;;;;;;5037330;28;20049;-76
2023/01/29 13:26:05;;;;;;;52.53;30.40;;;;;;;;;;5022070;28;20029;-76
2023/01/29 13:28:31;;;;;;;52.00;30.47;;;;;;;;;;5037231;28;20044;-76
2023/01/29 13:31:10;;;;;;;52.93;27.97;;;;;;;;;;5036831;28;20438;-76
2023/01/29 13:33:36;;;;;;;55.87;29.73;;;;;;;;;;5037074;28;20446;-76
2023/01/29 13:36:02;;;;;;;52.57;29.60;;;;;;;;;;5039137;28;20029;-76
2023/01/29 13:38:31;;;;;;;53.70;29.40;;;;;;;;;;5051409;28;20044;-76
2023/01/29 13:40:59;;;;;;;52.97;29.13;;;;;;;;;;5037096;28;20025;-76
2023/01/29 13:43:26;;;;;;;52.93;30.77;;;;;;;;;;5036828;28;20049;-75
2023/01/29 13:45:53;;;;;;;53.83;30.17;;;;;;;;;;5036714;28;20033;-75
2023/01/29 13:48:27;;;;;;;50.77;30.13;;;;;;;;;;5037004;28;20029;-75
2023/01/29 13:50:54;;;;;;;50.27;30.17;;;;;;;;;;5036833;28;20025;-76
2023/01/29 13:53:37;;;;;;;54.10;29.43;;;;;;;;;;5036909;28;20478;-75
2023/01/29 13:56:22;;;;;;;50.50;28.80;;;;;;;;;;5036980;28;20025;-75
2023/01/29 13:58:52;;;;;;;46.93;25.77;;;;;;;;;;5038938;28;20038;-76
2023/01/29 14:01:38;;;;;;;43.80;25.33;;;;;;;;;;5036490;28;20065;-77
2023/01/29 14:04:17;;;;;;;47.57;26.40;;;;;;;;;;5036252;28;20118;-77
2023/01/29 14:06:43;;;;;;;45.90;25.47;;;;;;;;;;5023441;28;20029;-76
2023/01/29 14:09:28;;;;;;;47.67;27.53;;;;;;;;;;5056821;28;20021;-77
2023/01/29 14:11:54;;;;;;;38.57;22.27;;;;;;;;;;5051942;28;20025;-76
2023/01/29 14:14:39;;;;;;;41.00;21.43;;;;;;;;;;5036484;28;20087;-75
2023/01/29 14:17:06;;;;;;;32.60;17.93;;;;;;;;;;5051653;28;20465;-76
2023/01/29 14:19:33;;;;;;;27.73;15.27;;;;;;;;;;5057409;28;20057;-75
2023/01/29 14:21:59;;;;;;;26.37;14.43;;;;;;;;;;5044006;28;20026;-76
2023/01/29 14:24:29;;;;;;;25.27;14.17;;;;;;;;;;5036138;28;20033;-78
2023/01/29 14:26:58;;;;;;;24.90;12.93;;;;;;;;;;5052724;28;20037;-78
2023/01/29 14:29:25;;;;;;;25.67;13.20;;;;;;;;;;5050303;28;20125;-78
2023/01/29 14:31:58;;;;;;;28.77;14.20;;;;;;;;;;5038442;28;20068;-76
2023/01/29 14:34:24;;;;;;;28.87;14.70;;;;;;;;;;5036109;28;20029;-76
2023/01/29 14:36:54;;;;;;;25.03;12.47;;;;;;;;;;5035995;28;20087;-75
2023/01/29 14:39:33;;;;;;;23.33;13.73;;;;;;;;;;5044678;28;20026;-77
2023/01/29 14:41:59;;;;;;;16.63;9.80;;;;;;;;;;5035818;28;20029;-76
2023/01/29 14:44:43;;;;;;;16.33;8.13;;;;;;;;;;5035370;28;20408;-76
2023/01/29 14:47:19;;;;;;;12.33;6.67;;;;;;;;;;5060462;28;20033;-77
2023/01/29 14:50:02;;;;;;;8.60;5.37;;;;;;;;;;5036224;28;20053;-76
2023/01/29 14:52:32;;;;;;;10.40;5.40;;;;;;;;;;5037003;28;20357;-76
2023/01/29 14:55:00;;;;;;;10.33;5.60;;;;;;;;;;5035873;28;20017;-75
2023/01/29 14:57:28;;;;;;;11.73;4.33;;;;;;;;;;5037516;28;20033;-76